createdAt,value
2022-09-03T00:02:30.085Z,84.39
2022-09-03T00:05:40.558Z,84.91
2022-09-03T00:08:59.946Z,87.01
2022-09-03T00:12:26.379Z,86.92
2022-09-03T00:15:31.846Z,87.11
2022-09-03T00:18:35.106Z,86.81
2022-09-03T00:21:48.838Z,87.27
2022-09-03T00:24:52.804Z,87.69
2022-09-03T00:27:58.566Z,87.54
2022-09-03T00:31:16.408Z,87.44
2022-09-03T00:34:34.082Z,87.39
2022-09-03T00:37:38.138Z,87.54
2022-09-03T00:40:49.591Z,88.16
2022-09-03T00:44:01.109Z,88.26
2022-09-03T00:47:29.429Z,88.80
2022-09-03T00:50:47.965Z,89.29
2022-09-03T00:53:57.231Z,89.13
2022-09-03T00:57:12.145Z,88.35
2022-09-03T01:00:17.539Z,88.55
2022-09-03T01:03:55.620Z,88.78
2022-09-03T01:07:40.514Z,88.58
2022-09-03T01:11:12.014Z,89.18
2022-09-03T01:14:39.573Z,89.61
2022-09-03T01:17:54.519Z,89.75
2022-09-03T01:21:17.727Z,90.44
2022-09-03T01:24:32.260Z,90.86
2022-09-03T01:28:13.541Z,90.44
2022-09-03T01:31:29.598Z,91.09
2022-09-03T01:34:34.444Z,91.04
2022-09-03T01:37:58.507Z,90.99
2022-09-03T01:41:33.885Z,90.70
2022-09-03T01:45:01.733Z,90.96
2022-09-03T01:48:14.833Z,90.62
2022-09-03T01:51:22.183Z,90.62
2022-09-03T01:54:50.478Z,90.55
2022-09-03T01:58:09.297Z,90.69
2022-09-03T02:01:33.045Z,91.01
2022-09-03T02:04:36.561Z,90.59
2022-09-03T02:07:46.516Z,91.41
2022-09-03T02:10:53.525Z,90.72
2022-09-03T02:13:59.870Z,91.60
2022-09-03T02:17:03.094Z,92.04
2022-09-03T02:20:11.787Z,91.60
2022-09-03T02:23:14.886Z,90.24
2022-09-03T02:26:21.755Z,91.45
2022-09-03T02:29:25.055Z,91.74
2022-09-03T02:32:28.114Z,91.36
2022-09-03T02:35:30.297Z,91.52
2022-09-03T02:38:32.855Z,91.34
2022-09-03T02:41:35.282Z,90.61
2022-09-03T02:44:44.755Z,90.00
2022-09-03T02:47:50.066Z,89.45
2022-09-03T02:50:52.590Z,89.38
2022-09-03T02:53:54.707Z,89.53
2022-09-03T02:56:57.095Z,91.04
2022-09-03T02:59:59.252Z,90.84
2022-09-03T03:03:05.756Z,91.23
2022-09-03T03:06:08.513Z,90.76
2022-09-03T03:09:10.906Z,91.57
2022-09-03T03:12:13.246Z,90.69
2022-09-03T03:15:15.681Z,91.70
2022-09-03T03:18:17.837Z,92.16
2022-09-03T03:21:20.281Z,92.02
2022-09-03T03:24:22.442Z,91.53
2022-09-03T03:27:24.842Z,91.97
2022-09-03T03:30:27.931Z,92.90
2022-09-03T03:33:30.355Z,92.83
2022-09-03T03:36:34.169Z,92.93
2022-09-03T03:39:36.613Z,92.85
2022-09-03T03:42:39.194Z,93.73
2022-09-03T03:45:41.690Z,94.18
2022-09-03T03:48:43.850Z,93.99
2022-09-03T03:51:46.265Z,93.82
2022-09-03T03:54:50.133Z,94.03
2022-09-03T03:57:52.508Z,93.39
2022-09-03T04:00:54.744Z,93.57
2022-09-03T04:03:58.735Z,93.99
2022-09-03T04:07:00.933Z,93.99
2022-09-03T04:10:03.837Z,94.46
2022-09-03T04:13:05.972Z,94.27
2022-09-03T04:16:12.807Z,94.62
2022-09-03T04:19:15.078Z,94.45
2022-09-03T04:22:19.079Z,93.81
2022-09-03T04:25:21.230Z,93.26
2022-09-03T04:28:26.105Z,92.90
2022-09-03T04:31:28.437Z,93.02
2022-09-03T04:34:30.822Z,92.72
2022-09-03T04:37:33.245Z,92.67
2022-09-03T04:40:35.661Z,92.25
2022-09-03T04:43:38.211Z,92.74
2022-09-03T04:46:40.777Z,91.37
2022-09-03T04:49:42.879Z,90.84
2022-09-03T04:52:45.281Z,90.57
2022-09-03T04:55:47.448Z,89.95
2022-09-03T04:58:55.494Z,89.89
2022-09-03T05:01:57.650Z,88.53
2022-09-03T05:05:00.176Z,86.22
2022-09-03T05:08:02.800Z,84.40
2022-09-03T05:11:06.038Z,82.83
2022-09-03T05:14:11.818Z,81.24
2022-09-03T05:17:14.227Z,81.12
2022-09-03T05:20:16.475Z,79.68
2022-09-03T05:23:19.789Z,74.37
2022-09-03T05:26:27.472Z,61.37
2022-09-03T05:29:29.919Z,50.94
2022-09-03T05:32:32.877Z,45.86
2022-09-03T05:35:35.288Z,41.83
2022-09-03T05:38:38.186Z,38.43
2022-09-03T05:41:40.648Z,35.69
2022-09-03T05:44:43.802Z,35.81
2022-09-03T05:47:46.250Z,35.28
2022-09-03T05:50:49.684Z,34.10
2022-09-03T05:53:53.544Z,34.20
2022-09-03T05:56:55.673Z,33.01
2022-09-03T05:59:58.107Z,31.83
2022-09-03T06:03:00.373Z,30.10
2022-09-03T06:06:04.949Z,28.19
2022-09-03T06:09:10.797Z,28.73
2022-09-03T06:12:13.174Z,30.74
2022-09-03T06:15:16.483Z,30.21
2022-09-03T06:18:18.952Z,29.89
2022-09-03T06:21:21.211Z,29.05
2022-09-03T06:24:28.080Z,27.34
2022-09-03T06:27:30.723Z,28.17
2022-09-03T06:30:33.101Z,25.98
2022-09-03T06:33:37.394Z,26.38
2022-09-03T06:36:41.319Z,26.45
2022-09-03T06:39:43.522Z,26.15
2022-09-03T06:42:58.956Z,24.14
2022-09-03T06:46:04.216Z,23.45
2022-09-03T06:49:06.980Z,23.05
2022-09-03T06:52:09.187Z,21.77
2022-09-03T06:55:11.570Z,21.14
2022-09-03T06:58:13.698Z,21.77
2022-09-03T07:01:23.337Z,20.95
2022-09-03T07:04:27.121Z,19.29
2022-09-03T07:07:31.488Z,19.73
2022-09-03T07:10:37.389Z,19.82
2022-09-03T07:13:42.455Z,20.45
2022-09-03T07:16:46.110Z,21.06
2022-09-03T07:19:48.516Z,20.31
2022-09-03T07:22:50.672Z,20.33
2022-09-03T07:25:55.625Z,20.70
2022-09-03T07:28:59.004Z,20.50
2022-09-03T07:32:01.724Z,22.10
2022-09-03T07:35:04.143Z,24.21
2022-09-03T07:38:06.540Z,25.77
2022-09-03T07:41:09.646Z,26.82
2022-09-03T07:44:15.377Z,28.05
2022-09-03T07:47:21.574Z,29.62
2022-09-03T07:50:32.859Z,31.51
2022-09-03T07:53:35.272Z,33.87
2022-09-03T07:56:39.655Z,35.01
2022-09-03T07:59:42.110Z,36.71
2022-09-03T08:02:46.396Z,38.59
2022-09-03T08:05:49.321Z,39.51
2022-09-03T08:09:03.500Z,40.08
2022-09-03T08:12:07.430Z,39.86
2022-09-03T08:15:09.742Z,40.25
2022-09-03T08:18:12.404Z,40.74
2022-09-03T08:21:16.844Z,41.25
2022-09-03T08:24:21.846Z,41.06
2022-09-03T08:27:26.116Z,40.60
2022-09-03T08:30:28.658Z,40.74
2022-09-03T08:33:41.099Z,41.24
2022-09-03T08:36:43.487Z,41.09
2022-09-03T08:39:45.709Z,40.28
2022-09-03T08:43:17.354Z,41.62
2022-09-03T08:46:21.844Z,41.24
2022-09-03T08:49:55.648Z,41.48
2022-09-03T08:53:28.407Z,41.98
2022-09-03T08:56:33.467Z,43.69
2022-09-03T08:59:35.634Z,43.97
2022-09-03T09:02:50.251Z,43.37
2022-09-03T09:06:08.026Z,42.52
2022-09-03T09:09:25.834Z,44.42
2022-09-03T09:12:58.545Z,44.36
2022-09-03T09:16:21.944Z,43.14
2022-09-03T09:19:51.712Z,42.40
2022-09-03T09:23:32.590Z,42.18
2022-09-03T09:26:34.837Z,43.04
2022-09-03T09:29:38.916Z,42.30
2022-09-03T09:32:41.046Z,41.07
2022-09-03T09:35:44.467Z,42.33
2022-09-03T09:38:47.331Z,41.64
2022-09-03T09:42:01.291Z,41.25
2022-09-03T09:45:11.149Z,42.08
2022-09-03T09:48:21.162Z,41.84
2022-09-03T09:51:28.198Z,42.01
2022-09-03T09:54:30.676Z,41.12
2022-09-03T09:57:32.803Z,41.50
2022-09-03T10:00:37.709Z,42.33
2022-09-03T10:03:55.221Z,41.51
2022-09-03T10:07:19.627Z,41.22
2022-09-03T10:10:23.375Z,40.97
2022-09-03T10:13:35.179Z,41.43
2022-09-03T10:16:41.397Z,41.57
2022-09-03T10:20:17.241Z,43.36
2022-09-03T10:23:27.890Z,42.97
2022-09-03T10:26:32.272Z,41.49
2022-09-03T10:29:39.234Z,39.59
2022-09-03T10:33:09.761Z,37.97
2022-09-03T10:36:22.058Z,39.56
2022-09-03T10:39:51.632Z,39.12
2022-09-03T10:43:05.121Z,40.06
2022-09-03T10:46:14.706Z,38.57
2022-09-03T10:49:23.017Z,41.14
2022-09-03T10:52:40.954Z,40.96
2022-09-03T10:55:56.884Z,41.10
2022-09-03T10:59:54.871Z,40.69
2022-09-03T11:03:39.041Z,41.20
2022-09-03T11:06:53.998Z,41.53
2022-09-03T11:10:11.685Z,40.43
2022-09-03T11:13:43.332Z,42.05
2022-09-03T11:16:52.623Z,41.19
2022-09-03T11:20:07.451Z,41.52
2022-09-03T11:23:13.490Z,41.71
2022-09-03T11:26:19.680Z,42.03
2022-09-03T11:29:36.777Z,41.98
2022-09-03T11:32:55.906Z,42.14
2022-09-03T11:36:01.398Z,38.91
2022-09-03T11:39:34.532Z,38.75
2022-09-03T11:42:41.126Z,37.81
2022-09-03T11:45:44.365Z,38.35
2022-09-03T11:48:49.453Z,38.08
2022-09-03T11:51:59.333Z,39.74
2022-09-03T11:55:01.843Z,37.82
2022-09-03T11:58:27.171Z,36.86
2022-09-03T12:01:29.954Z,36.47
2022-09-03T12:04:42.785Z,38.03
2022-09-03T12:08:13.075Z,36.93
2022-09-03T12:11:44.986Z,36.33
2022-09-03T12:14:59.314Z,37.33
2022-09-03T12:18:21.572Z,36.29
2022-09-03T12:21:24.431Z,35.94
2022-09-03T12:24:33.620Z,37.21
2022-09-03T12:27:43.087Z,37.16
2022-09-03T12:30:46.833Z,37.27
2022-09-03T12:33:54.041Z,37.70
2022-09-03T12:36:56.618Z,36.94
2022-09-03T12:40:07.921Z,36.27
2022-09-03T12:46:40.072Z,36.03
2022-09-03T12:49:47.284Z,35.79
2022-09-03T12:53:01.014Z,37.10
2022-09-03T12:56:03.699Z,37.38
2022-09-03T12:59:11.464Z,35.75
2022-09-03T13:02:26.235Z,37.35
2022-09-03T13:05:45.190Z,37.36
2022-09-03T13:08:52.243Z,38.32
2022-09-03T13:11:55.491Z,38.93
2022-09-03T13:14:58.000Z,38.21
2022-09-03T13:18:11.210Z,37.71
2022-09-03T13:21:20.867Z,36.82
2022-09-03T13:24:27.452Z,36.04
2022-09-03T13:27:37.630Z,35.93
2022-09-03T13:31:02.374Z,36.18
2022-09-03T13:34:21.731Z,36.33
2022-09-03T13:37:42.429Z,36.15
2022-09-03T13:40:55.505Z,35.42
2022-09-03T13:44:05.604Z,36.10
2022-09-03T13:47:36.268Z,35.51
2022-09-03T13:50:45.049Z,35.96
2022-09-03T13:53:54.634Z,35.42
2022-09-03T13:57:21.895Z,37.23
2022-09-03T14:00:31.888Z,36.73
2022-09-03T14:03:52.537Z,35.95
2022-09-03T14:07:02.908Z,36.93
2022-09-03T14:10:38.124Z,37.53
2022-09-03T14:14:00.364Z,37.47
2022-09-03T14:17:10.440Z,37.79
2022-09-03T14:20:20.534Z,37.74
2022-09-03T14:23:35.576Z,37.11
2022-09-03T14:26:40.026Z,37.06
2022-09-03T14:29:52.954Z,36.88
2022-09-03T14:33:10.116Z,37.79
2022-09-03T14:36:30.210Z,37.81
2022-09-03T14:39:38.164Z,38.13
2022-09-03T14:43:08.459Z,37.01
2022-09-03T14:46:34.454Z,37.50
2022-09-03T14:49:51.681Z,37.83
2022-09-03T14:53:06.219Z,37.41
2022-09-03T14:56:46.615Z,37.99
2022-09-03T15:00:07.365Z,39.33
2022-09-03T15:03:35.014Z,38.95
2022-09-03T15:07:07.230Z,39.03
2022-09-03T15:10:32.888Z,38.69
2022-09-03T15:13:45.710Z,39.18
2022-09-03T15:17:01.445Z,40.01
2022-09-03T15:20:28.538Z,39.86
2022-09-03T15:24:05.072Z,40.25
2022-09-03T15:27:33.286Z,40.81
2022-09-03T15:30:49.538Z,40.94
2022-09-03T15:34:04.279Z,40.46
2022-09-03T15:37:32.932Z,41.35
2022-09-03T15:40:42.789Z,41.41
2022-09-03T15:43:49.657Z,41.96
2022-09-03T15:47:05.256Z,41.89
2022-09-03T15:50:40.200Z,41.60
2022-09-03T15:54:03.395Z,41.14
2022-09-03T15:57:12.361Z,41.59
2022-09-03T16:00:21.397Z,42.00
2022-09-03T16:03:46.818Z,41.89
2022-09-03T16:07:04.147Z,42.63
2022-09-03T16:10:26.337Z,42.43
2022-09-03T16:14:05.787Z,43.80
2022-09-03T16:17:23.473Z,43.66
2022-09-03T16:20:31.638Z,43.93
2022-09-03T16:24:17.262Z,44.64
2022-09-03T16:27:32.622Z,45.57
2022-09-03T16:30:49.791Z,45.57
2022-09-03T16:33:57.848Z,45.78
2022-09-03T16:37:18.514Z,47.22
2022-09-03T16:40:46.656Z,46.18
2022-09-03T16:43:56.792Z,46.64
2022-09-03T16:47:15.700Z,47.05
2022-09-03T16:50:59.411Z,47.88
2022-09-03T16:54:12.554Z,49.01
2022-09-03T16:57:33.628Z,49.47
2022-09-03T17:01:18.336Z,50.67
2022-09-03T17:04:58.125Z,51.65
2022-09-03T17:08:06.886Z,52.30
2022-09-03T17:11:36.985Z,53.38
2022-09-03T17:15:02.871Z,54.03
2022-09-03T17:18:17.735Z,54.33
2022-09-03T17:21:35.100Z,54.96
2022-09-03T17:24:48.086Z,55.64
2022-09-03T17:28:07.556Z,56.88
2022-09-03T17:31:22.117Z,57.52
2022-09-03T17:34:39.180Z,58.62
2022-09-03T17:37:58.195Z,58.77
2022-09-03T17:41:06.369Z,59.24
2022-09-03T17:44:33.841Z,59.36
2022-09-03T17:47:42.316Z,59.73
2022-09-03T17:51:03.456Z,59.70
2022-09-03T17:54:17.603Z,59.83
2022-09-03T17:57:32.789Z,60.41
2022-09-03T18:00:45.789Z,61.13
2022-09-03T18:03:57.498Z,62.18
2022-09-03T18:07:23.617Z,61.37
2022-09-03T18:10:34.033Z,61.33
2022-09-03T18:13:57.838Z,61.25
2022-09-03T18:17:12.858Z,61.43
2022-09-03T18:20:34.423Z,61.69
2022-09-03T18:24:11.298Z,62.65
2022-09-03T18:27:46.337Z,62.72
2022-09-03T18:31:07.131Z,63.16
2022-09-03T18:34:28.110Z,64.08
2022-09-03T18:37:48.915Z,64.52
2022-09-03T18:41:30.890Z,66.35
2022-09-03T18:45:21.441Z,66.63
2022-09-03T18:49:01.766Z,66.72
2022-09-03T18:52:44.524Z,67.48
2022-09-03T18:56:16.641Z,67.86
2022-09-03T19:00:02.766Z,68.72
2022-09-03T19:04:01.458Z,69.23
2022-09-03T19:07:28.043Z,69.62
2022-09-03T19:11:06.052Z,71.42
2022-09-03T19:14:36.467Z,71.18
2022-09-03T19:18:26.563Z,71.88
2022-09-03T19:21:59.932Z,72.06
2022-09-03T19:25:31.188Z,71.46
2022-09-03T19:28:59.294Z,71.92
2022-09-03T19:32:27.751Z,72.68
2022-09-03T19:36:00.106Z,72.73
2022-09-03T19:39:56.553Z,72.96
2022-09-03T19:43:26.887Z,73.44
2022-09-03T19:47:03.691Z,73.81
2022-09-03T19:50:35.792Z,73.64
2022-09-03T19:53:56.592Z,73.33
2022-09-03T19:57:17.414Z,74.13
2022-09-03T20:00:38.207Z,73.80
2022-09-03T20:04:01.106Z,75.11
2022-09-03T20:07:27.071Z,75.01
2022-09-03T20:10:29.495Z,74.52
2022-09-03T20:13:52.816Z,74.86
2022-09-03T20:17:01.434Z,75.09
2022-09-03T20:20:06.647Z,75.65
2022-09-03T20:23:15.823Z,75.86
2022-09-03T20:26:30.717Z,74.91
2022-09-03T20:29:59.007Z,74.78
2022-09-03T20:33:22.957Z,74.83
2022-09-03T20:36:43.999Z,74.40
2022-09-03T20:40:11.722Z,74.40
2022-09-03T20:43:46.205Z,75.04
2022-09-03T20:46:59.970Z,76.87
2022-09-03T20:50:11.288Z,77.34
2022-09-03T20:53:26.846Z,77.57
2022-09-03T20:56:40.297Z,77.30
2022-09-03T20:59:51.497Z,76.21
2022-09-03T21:03:17.295Z,76.90
2022-09-03T21:06:41.373Z,77.76
2022-09-03T21:09:48.523Z,77.85
2022-09-03T21:13:11.594Z,78.20
2022-09-03T21:16:51.759Z,78.21
2022-09-03T21:19:56.570Z,78.49
2022-09-03T21:23:23.651Z,78.71
2022-09-03T21:26:29.239Z,78.82
2022-09-03T21:29:43.037Z,79.61
2022-09-03T21:32:54.831Z,80.21
2022-09-03T21:36:06.979Z,80.33
2022-09-03T21:39:21.684Z,80.11
2022-09-03T21:42:43.649Z,80.51
2022-09-03T21:46:19.315Z,80.82
2022-09-03T21:49:58.117Z,80.91
2022-09-03T21:53:09.520Z,80.49
2022-09-03T21:56:50.877Z,80.32
2022-09-03T22:00:12.662Z,80.29
2022-09-03T22:03:14.724Z,80.57
2022-09-03T22:06:28.739Z,80.59
2022-09-03T22:09:39.451Z,80.23
2022-09-03T22:13:09.261Z,80.72
2022-09-03T22:16:23.639Z,80.62
2022-09-03T22:19:26.120Z,80.87
2022-09-03T22:22:43.847Z,80.81
2022-09-03T22:25:58.954Z,80.89
2022-09-03T22:29:11.716Z,81.39
2022-09-03T22:32:34.583Z,81.52
2022-09-03T22:36:02.773Z,82.31
2022-09-03T22:39:17.253Z,82.35
2022-09-03T22:42:44.864Z,81.81
2022-09-03T22:46:04.091Z,83.12
2022-09-03T22:49:25.022Z,82.94
2022-09-03T22:52:38.292Z,81.99
2022-09-03T22:55:49.031Z,82.36
2022-09-03T22:59:16.060Z,82.20
2022-09-03T23:02:23.681Z,83.64
2022-09-03T23:05:47.957Z,84.40
2022-09-03T23:09:00.180Z,84.53
2022-09-03T23:12:16.928Z,84.29
2022-09-03T23:15:26.190Z,83.20
2022-09-03T23:18:32.609Z,83.07
2022-09-03T23:21:41.117Z,82.32
2022-09-03T23:24:49.986Z,82.26
2022-09-03T23:28:02.856Z,82.74
2022-09-03T23:31:22.748Z,83.14
2022-09-03T23:34:26.205Z,83.55
2022-09-03T23:37:41.958Z,85.12
2022-09-03T23:40:51.948Z,85.39
2022-09-03T23:44:20.739Z,85.28
2022-09-03T23:48:03.739Z,84.31
2022-09-03T23:51:05.995Z,84.11
2022-09-03T23:54:37.966Z,83.93
2022-09-03T23:57:45.752Z,85.45
